Boston, Indiana
Current Conditions -  °F | °C
As of 8:15 AM on Tuesday 21 Oct 2014 (Local Time) from KMWO Reporting Station
Overcast Overcast  
Wind Chill: 52°   Ceiling: 6000
Heat Index: 52°   Visibility: 10mi
Dew Point: 44°   Wind: 8mph
Humidity: 75%   Direction: 330°NNW
Pressure: 30"   Gusts: NA
Location:  39.74°N, 84.85°W
Report Text: KMWO 211215Z AUTO 33007KT 10SM OVC060 11/07 A3000 RMK AO2 T01100067
Loading
Personal Weather Stations






























Interactive Weather Map
Tropical Storm Tracking
New forecast layout! Learn more

10-Day Weather Forecast

Advertisements
Track Severe Weather on mobile